Time;durP1;ratioP1;P1;durP2;ratioP2;P2;SDS_P1;SDS_P2;PMS_P1;PMS_P2;Temp;Humidity;BMP_temperature;BMP_pressure;BME280_temperature;BME280_humidity;BME280_pressure;Samples;Min_cycle;Max_cycle;Signal;HPM_P1;HPM_P2
2022/10/29 00:01:15;;;;;;;20.07;8.30;;;14.20;99.90;;;;;;5078284;28;20211;-59
2022/10/29 00:03:46;;;;;;;16.97;7.47;;;14.10;99.90;;;;;;5095987;28;20223;-60
2022/10/29 00:06:15;;;;;;;15.40;7.87;;;14.10;99.90;;;;;;5062521;28;20196;-59
2022/10/29 00:08:43;;;;;;;12.57;7.30;;;14.10;99.90;;;;;;5070173;28;20592;-59
2022/10/29 00:11:13;;;;;;;14.97;7.57;;;14.00;99.90;;;;;;5096349;28;20195;-59
2022/10/29 00:13:42;;;;;;;17.40;7.47;;;14.00;99.90;;;;;;5103993;28;20646;-59
2022/10/29 00:16:12;;;;;;;19.63;7.30;;;13.90;99.90;;;;;;5061802;28;20183;-59
2022/10/29 00:18:42;;;;;;;16.93;7.63;;;13.90;99.90;;;;;;5086241;28;20203;-59
2022/10/29 00:21:12;;;;;;;14.90;7.43;;;13.90;99.90;;;;;;5116458;28;20187;-59
2022/10/29 00:23:41;;;;;;;9.43;7.23;;;13.80;99.90;;;;;;5116220;28;20510;-59
2022/10/29 00:26:09;;;;;;;18.43;7.80;;;13.80;99.90;;;;;;5116361;28;20644;-59
2022/10/29 00:28:38;;;;;;;17.63;8.20;;;13.80;99.90;;;;;;5116166;28;20191;-59
2022/10/29 00:31:08;;;;;;;14.73;7.77;;;13.80;99.90;;;;;;5098245;28;20203;-59
2022/10/29 00:33:36;;;;;;;17.37;8.03;;;13.80;99.90;;;;;;5097905;28;20191;-59
2022/10/29 00:36:09;;;;;;;17.40;7.53;;;13.70;99.90;;;;;;5098022;28;20195;-60
2022/10/29 00:38:37;;;;;;;14.33;7.97;;;13.70;99.90;;;;;;5116343;28;20198;-59
2022/10/29 00:41:07;;;;;;;20.27;8.77;;;13.70;99.90;;;;;;5116354;28;20522;-60
2022/10/29 00:43:37;;;;;;;16.97;9.43;;;13.70;99.90;;;;;;5115909;28;20218;-59
2022/10/29 00:46:09;;;;;;;19.63;10.30;;;13.80;99.90;;;;;;5104081;28;20200;-58
2022/10/29 00:48:42;;;;;;;26.97;10.20;;;13.80;99.90;;;;;;5095365;28;20654;-58
2022/10/29 00:51:14;;;;;;;19.57;9.20;;;13.70;99.90;;;;;;5077510;28;20188;-59
2022/10/29 00:53:47;;;;;;;18.23;8.70;;;13.70;99.90;;;;;;5077597;28;20270;-59
2022/10/29 00:56:17;;;;;;;16.33;8.43;;;13.80;99.90;;;;;;5095602;28;20546;-59
2022/10/29 00:58:46;;;;;;;18.97;9.30;;;13.70;99.90;;;;;;5102158;28;20579;-59
2022/10/29 01:05:31;;;;;;;27.67;12.10;;;13.70;99.90;;;;;;5095475;28;20180;-59
2022/10/29 01:11:44;;;;;;;21.27;11.40;;;14.00;99.90;;;;;;5096968;28;20680;-60
2022/10/29 01:14:23;;;;;;;31.20;11.60;;;14.20;99.90;;;;;;5115264;28;20201;-59
2022/10/29 01:16:59;;;;;;;25.97;11.20;;;14.30;99.90;;;;;;5115536;28;20190;-59
2022/10/29 01:20:05;;;;;;;33.23;12.73;;;14.30;99.90;;;;;;5115505;28;20552;-59
2022/10/29 01:22:39;;;;;;;20.80;12.00;;;14.30;99.90;;;;;;5057025;28;20227;-59
2022/10/29 01:25:28;;;;;;;30.63;12.47;;;14.40;99.90;;;;;;5114925;28;20200;-59
2022/10/29 01:28:06;;;;;;;25.63;11.97;;;14.40;99.90;;;;;;5103939;28;20517;-59
2022/10/29 01:31:20;;;;;;;29.00;11.77;;;14.40;99.90;;;;;;5076435;28;20554;-59
2022/10/29 01:33:55;;;;;;;23.67;11.97;;;14.40;99.90;;;;;;5020153;28;20601;-59
2022/10/29 01:36:33;;;;;;;20.23;10.90;;;14.40;99.90;;;;;;5083024;28;20194;-59
2022/10/29 01:39:07;;;;;;;33.37;12.60;;;14.40;99.90;;;;;;5133758;27;20208;-59
2022/10/29 01:41:44;;;;;;;23.93;12.10;;;14.40;99.90;;;;;;5135770;27;20181;-59
2022/10/29 01:44:22;;;;;;;20.93;11.53;;;14.30;99.90;;;;;;5119774;27;20645;-59
2022/10/29 01:46:55;;;;;;;22.03;11.77;;;14.20;99.90;;;;;;5115057;28;20198;-59
2022/10/29 01:49:29;;;;;;;27.23;11.53;;;14.10;99.90;;;;;;5094577;28;20190;-59
2022/10/29 01:52:01;;;;;;;28.77;12.47;;;14.10;99.90;;;;;;5114720;28;20653;-59
2022/10/29 01:54:29;;;;;;;27.23;13.07;;;14.10;99.90;;;;;;5113086;28;20195;-59
2022/10/29 01:56:58;;;;;;;32.17;13.00;;;14.10;99.90;;;;;;5113306;28;20525;-59
2022/10/29 01:59:31;;;;;;;25.63;12.87;;;14.10;99.90;;;;;;5106979;28;20533;-59
2022/10/29 02:02:29;;;;;;;22.93;12.50;;;14.10;99.90;;;;;;5100028;28;20294;-58
2022/10/29 02:05:17;;;;;;;29.50;12.93;;;14.10;99.90;;;;;;5114130;28;20236;-59
2022/10/29 02:11:26;;;;;;;30.13;13.30;;;14.00;99.90;;;;;;5094193;28;20220;-59
2022/10/29 02:13:59;;;;;;;25.83;12.03;;;14.00;99.90;;;;;;5094053;28;20183;-59
2022/10/29 02:16:29;;;;;;;23.50;12.20;;;14.00;99.90;;;;;;5094445;28;20195;-59
2022/10/29 02:18:59;;;;;;;28.80;12.47;;;14.00;99.90;;;;;;5094089;28;20196;-59
2022/10/29 02:21:29;;;;;;;26.13;12.50;;;14.00;99.90;;;;;;5110690;28;20182;-59
2022/10/29 02:23:57;;;;;;;26.90;12.77;;;14.10;99.90;;;;;;5113907;28;20233;-59
2022/10/29 02:26:28;;;;;;;26.50;12.57;;;14.10;99.90;;;;;;5095983;28;20198;-59
2022/10/29 02:28:57;;;;;;;26.53;12.87;;;14.20;99.90;;;;;;5114171;28;20522;-59
2022/10/29 02:31:26;;;;;;;26.37;12.50;;;14.20;99.90;;;;;;5095908;28;20205;-59
2022/10/29 02:33:54;;;;;;;26.70;12.17;;;14.20;99.90;;;;;;5113305;28;20183;-59
2022/10/29 02:36:28;;;;;;;21.50;11.70;;;14.20;99.90;;;;;;5075152;28;20202;-58
2022/10/29 02:38:57;;;;;;;27.13;12.50;;;14.20;99.90;;;;;;5075543;28;20202;-58
2022/10/29 02:41:29;;;;;;;27.67;11.70;;;14.20;99.90;;;;;;5093963;28;20183;-58
2022/10/29 02:43:58;;;;;;;27.67;11.83;;;14.10;99.90;;;;;;5112189;28;20218;-59
2022/10/29 02:46:26;;;;;;;30.57;12.30;;;14.20;99.90;;;;;;5113866;28;20191;-59
2022/10/29 02:48:54;;;;;;;27.60;11.20;;;14.10;99.90;;;;;;5113215;28;20182;-58
2022/10/29 02:51:23;;;;;;;22.30;10.77;;;14.20;99.90;;;;;;5113810;28;20265;-59
2022/10/29 02:53:52;;;;;;;21.83;10.70;;;14.10;99.90;;;;;;5113628;28;20244;-58
2022/10/29 02:56:21;;;;;;;17.27;10.00;;;14.10;99.90;;;;;;5100521;28;20199;-58
2022/10/29 02:58:49;;;;;;;24.23;11.10;;;14.10;99.90;;;;;;5111174;28;20563;-59
2022/10/29 03:01:17;;;;;;;26.10;11.87;;;14.10;99.90;;;;;;5112399;28;20190;-59
2022/10/29 03:03:46;;;;;;;24.90;11.53;;;14.10;99.90;;;;;;5104705;28;20293;-59
2022/10/29 03:06:15;;;;;;;22.17;10.97;;;14.20;99.90;;;;;;5106436;28;20652;-59
2022/10/29 03:08:43;;;;;;;25.00;10.60;;;14.20;99.90;;;;;;5113135;28;20194;-60
2022/10/29 03:11:13;;;;;;;19.43;11.03;;;14.20;99.90;;;;;;5112714;28;20201;-59
2022/10/29 03:13:42;;;;;;;24.37;10.57;;;14.20;99.90;;;;;;5098705;28;20242;-59
2022/10/29 03:16:10;;;;;;;19.10;10.70;;;14.20;99.90;;;;;;5095417;28;20198;-59
2022/10/29 03:18:38;;;;;;;19.47;9.40;;;14.20;99.90;;;;;;5113515;28;20190;-59
2022/10/29 03:21:07;;;;;;;18.77;10.47;;;14.10;99.90;;;;;;5112858;28;20195;-60
2022/10/29 03:23:35;;;;;;;19.60;10.53;;;14.10;99.90;;;;;;5113332;28;20531;-59
2022/10/29 03:26:03;;;;;;;24.90;11.07;;;14.20;99.90;;;;;;5113427;28;20194;-59
2022/10/29 03:28:33;;;;;;;20.13;10.67;;;14.20;99.90;;;;;;5084985;28;20191;-59
2022/10/29 03:31:02;;;;;;;21.13;9.83;;;14.20;99.90;;;;;;5106868;28;20222;-59
2022/10/29 03:33:30;;;;;;;20.27;10.20;;;14.20;99.90;;;;;;5089404;28;20200;-59
2022/10/29 03:35:59;;;;;;;28.57;11.20;;;14.20;99.90;;;;;;5095285;28;20654;-59
2022/10/29 03:38:28;;;;;;;28.40;11.40;;;14.20;99.90;;;;;;5113329;28;20225;-60
2022/10/29 03:40:56;;;;;;;20.47;10.37;;;14.30;99.90;;;;;;5088376;28;20193;-59
2022/10/29 03:43:25;;;;;;;23.23;11.37;;;14.30;99.90;;;;;;5111498;28;20215;-59
2022/10/29 03:45:56;;;;;;;18.83;10.20;;;14.30;99.90;;;;;;5105532;28;20206;-59
2022/10/29 03:48:25;;;;;;;29.03;11.00;;;14.30;99.90;;;;;;5060033;28;20196;-60
2022/10/29 03:50:57;;;;;;;31.93;11.80;;;14.30;99.90;;;;;;5112923;28;20192;-59
2022/10/29 03:53:26;;;;;;;25.33;11.33;;;14.40;99.90;;;;;;5113103;28;20190;-59
2022/10/29 03:55:55;;;;;;;32.70;12.20;;;14.30;99.90;;;;;;5112990;28;20236;-59
2022/10/29 03:58:25;;;;;;;23.10;10.97;;;14.30;99.90;;;;;;5095078;28;20191;-59
2022/10/29 04:00:59;;;;;;;24.20;10.93;;;14.20;99.90;;;;;;5095104;28;20195;-59
2022/10/29 04:03:43;;;;;;;21.43;10.73;;;14.20;99.90;;;;;;5117186;28;20226;-60
2022/10/29 04:06:13;;;;;;;23.00;10.67;;;14.10;99.90;;;;;;5098312;28;20212;-59
2022/10/29 04:08:42;;;;;;;20.83;9.93;;;14.10;99.90;;;;;;5116954;28;20660;-59
2022/10/29 04:11:12;;;;;;;22.33;10.90;;;14.10;99.90;;;;;;5098054;28;20585;-59
2022/10/29 04:13:40;;;;;;;24.87;11.73;;;14.10;99.90;;;;;;5098440;28;20266;-60
2022/10/29 04:16:10;;;;;;;23.37;11.47;;;14.10;99.90;;;;;;5116442;28;20637;-60
2022/10/29 04:18:38;;;;;;;22.93;11.47;;;14.20;99.90;;;;;;5116724;28;20191;-59
2022/10/29 04:21:07;;;;;;;23.53;10.73;;;14.20;99.90;;;;;;5116295;28;20667;-59
2022/10/29 04:23:55;;;;;;;17.00;10.10;;;14.10;99.90;;;;;;5096782;28;20663;-59
2022/10/29 04:26:44;;;;;;;23.80;10.50;;;14.10;99.90;;;;;;5088583;28;20206;-59
2022/10/29 04:29:32;;;;;;;20.80;9.70;;;14.00;99.90;;;;;;5116178;28;20194;-59
2022/10/29 04:32:02;;;;;;;21.47;10.67;;;14.00;99.90;;;;;;5116415;28;20199;-59
2022/10/29 04:34:30;;;;;;;22.07;10.07;;;13.90;99.90;;;;;;5111372;28;20274;-59
2022/10/29 04:36:59;;;;;;;19.70;10.80;;;14.00;99.90;;;;;;5080989;28;20186;-59
2022/10/29 04:39:27;;;;;;;19.17;9.50;;;14.00;99.90;;;;;;5116528;28;20213;-59
2022/10/29 04:41:55;;;;;;;16.23;9.93;;;14.00;99.90;;;;;;5097670;28;20555;-59
2022/10/29 04:44:24;;;;;;;24.20;9.77;;;14.00;99.90;;;;;;5112938;28;20565;-59
2022/10/29 04:46:52;;;;;;;33.07;10.33;;;14.00;99.90;;;;;;5090091;28;20191;-59
2022/10/29 04:49:22;;;;;;;16.73;10.10;;;13.90;99.90;;;;;;5115987;28;20194;-60
2022/10/29 04:51:50;;;;;;;24.53;10.80;;;13.90;99.90;;;;;;5097608;28;20331;-59
2022/10/29 04:54:18;;;;;;;22.73;10.97;;;13.90;99.90;;;;;;5097920;28;20192;-59
2022/10/29 04:56:47;;;;;;;18.97;10.47;;;13.90;99.90;;;;;;5094021;28;20195;-59
2022/10/29 04:59:15;;;;;;;21.43;10.17;;;13.80;99.90;;;;;;5095402;28;20673;-59
2022/10/29 05:01:43;;;;;;;16.97;9.50;;;13.80;99.90;;;;;;5095365;28;20191;-59
2022/10/29 05:04:11;;;;;;;20.97;10.10;;;13.70;99.90;;;;;;5107564;28;20215;-59
2022/10/29 05:06:41;;;;;;;21.63;10.60;;;13.70;99.90;;;;;;5115243;28;20592;-60
2022/10/29 05:09:09;;;;;;;24.27;10.97;;;13.60;99.90;;;;;;5115641;28;20207;-59
2022/10/29 05:11:38;;;;;;;23.97;10.13;;;13.60;99.90;;;;;;5115718;28;20218;-59
2022/10/29 05:14:07;;;;;;;21.30;10.67;;;13.60;99.90;;;;;;5115962;28;20195;-59
2022/10/29 05:16:35;;;;;;;26.20;10.70;;;13.50;99.90;;;;;;5097254;28;20199;-59
2022/10/29 05:19:05;;;;;;;26.70;10.93;;;13.50;99.90;;;;;;5115320;28;20195;-59
2022/10/29 05:21:33;;;;;;;29.50;11.27;;;13.50;99.90;;;;;;5115537;28;20713;-60
2022/10/29 05:24:03;;;;;;;24.70;11.17;;;13.60;99.90;;;;;;5096975;28;20211;-59
2022/10/29 05:26:32;;;;;;;23.53;11.17;;;13.60;99.90;;;;;;5114914;28;20187;-60
2022/10/29 05:29:00;;;;;;;22.83;10.80;;;13.60;99.90;;;;;;5113065;28;20206;-59
2022/10/29 05:31:28;;;;;;;20.23;10.13;;;13.50;99.90;;;;;;5114327;28;20206;-60
2022/10/29 05:33:56;;;;;;;19.20;9.60;;;13.50;99.90;;;;;;5095215;28;20201;-59
2022/10/29 05:36:25;;;;;;;20.20;8.77;;;13.40;99.90;;;;;;5094878;28;20191;-59
2022/10/29 05:38:53;;;;;;;20.10;9.37;;;13.40;99.90;;;;;;5104846;28;20195;-60
2022/10/29 05:41:23;;;;;;;18.00;8.60;;;13.30;99.90;;;;;;5094295;28;20202;-59
2022/10/29 05:43:51;;;;;;;15.23;9.03;;;13.20;99.90;;;;;;5110020;28;20193;-59
2022/10/29 05:46:19;;;;;;;14.07;8.93;;;13.20;99.90;;;;;;5096498;28;20206;-60
2022/10/29 05:48:47;;;;;;;16.63;8.97;;;13.20;99.90;;;;;;5096631;28;20530;-59
2022/10/29 05:51:15;;;;;;;15.03;8.97;;;13.10;99.90;;;;;;5114654;28;20195;-60
2022/10/29 05:53:44;;;;;;;17.00;8.93;;;13.10;99.90;;;;;;5114248;28;20197;-59
2022/10/29 05:56:12;;;;;;;14.50;8.27;;;13.00;99.90;;;;;;5114883;28;20567;-59
2022/10/29 06:03:22;;;;;;;20.40;10.03;;;13.00;99.90;;;;;;5097937;28;20258;-59
2022/10/29 06:05:50;;;;;;;25.47;10.57;;;12.90;99.90;;;;;;5113037;28;20226;-59
2022/10/29 06:08:19;;;;;;;17.97;9.60;;;12.90;99.90;;;;;;5114173;28;20533;-59
2022/10/29 06:10:47;;;;;;;14.60;9.40;;;12.90;99.90;;;;;;5114528;28;20191;-58
2022/10/29 06:13:17;;;;;;;22.73;10.47;;;13.00;99.90;;;;;;5109216;28;20240;-59
2022/10/29 06:15:49;;;;;;;23.43;10.87;;;13.00;99.90;;;;;;5095980;28;20189;-60
2022/10/29 06:18:19;;;;;;;23.30;12.00;;;13.00;99.90;;;;;;5111477;28;20537;-59
2022/10/29 06:20:47;;;;;;;19.50;10.80;;;13.10;99.90;;;;;;5113596;28;20542;-59
2022/10/29 06:23:15;;;;;;;19.30;10.20;;;13.10;99.90;;;;;;5104312;28;20199;-59
2022/10/29 06:25:43;;;;;;;15.73;9.10;;;13.10;99.90;;;;;;5094897;28;20218;-59
2022/10/29 06:28:14;;;;;;;21.77;10.63;;;13.10;99.90;;;;;;5098837;28;20194;-59
2022/10/29 06:30:47;;;;;;;22.83;11.13;;;13.10;99.90;;;;;;5113967;28;20736;-60
2022/10/29 06:33:16;;;;;;;23.77;10.50;;;13.10;99.90;;;;;;5113960;28;20189;-59
2022/10/29 06:35:46;;;;;;;19.87;9.97;;;13.10;99.90;;;;;;5112599;28;20204;-59
2022/10/29 06:38:15;;;;;;;14.70;8.97;;;13.10;99.90;;;;;;5113667;28;20190;-59
2022/10/29 06:40:43;;;;;;;17.23;9.60;;;13.10;99.90;;;;;;5099586;28;20184;-59
2022/10/29 06:43:12;;;;;;;18.53;9.77;;;13.10;99.90;;;;;;5110870;27;20194;-59
2022/10/29 06:45:40;;;;;;;16.53;9.87;;;13.10;99.90;;;;;;5118936;27;20592;-59
2022/10/29 06:48:09;;;;;;;19.40;10.93;;;13.10;99.90;;;;;;5113715;28;20198;-59
2022/10/29 06:50:37;;;;;;;23.67;10.10;;;13.10;99.90;;;;;;5104318;28;20203;-59
2022/10/29 06:53:11;;;;;;;24.50;11.07;;;13.20;99.90;;;;;;5096703;28;20548;-60
2022/10/29 06:55:39;;;;;;;25.83;12.37;;;13.20;99.90;;;;;;5113590;28;20190;-59
2022/10/29 06:58:11;;;;;;;25.93;13.00;;;13.30;99.90;;;;;;5111990;28;20676;-59
2022/10/29 07:00:40;;;;;;;22.33;12.03;;;13.30;99.90;;;;;;5095573;28;20179;-59
2022/10/29 07:03:11;;;;;;;31.47;13.03;;;13.40;99.90;;;;;;5095477;28;20186;-59
2022/10/29 07:05:40;;;;;;;29.57;11.80;;;13.40;99.90;;;;;;5113509;28;20206;-59
2022/10/29 07:08:10;;;;;;;31.63;12.80;;;13.50;99.90;;;;;;5113404;28;20190;-59
2022/10/29 07:10:38;;;;;;;22.47;12.87;;;13.60;99.90;;;;;;5100242;28;20194;-59
2022/10/29 07:13:07;;;;;;;29.77;12.03;;;13.60;99.90;;;;;;5113476;28;20222;-59
2022/10/29 07:15:35;;;;;;;29.17;12.73;;;13.60;99.90;;;;;;5095742;28;20186;-59
2022/10/29 07:18:05;;;;;;;22.67;12.27;;;13.70;99.90;;;;;;5113351;28;20194;-59
2022/10/29 07:20:35;;;;;;;26.03;11.40;;;13.70;99.90;;;;;;5113657;28;20191;-59
2022/10/29 07:23:04;;;;;;;25.33;11.50;;;13.70;99.90;;;;;;5095148;28;20203;-59
2022/10/29 07:25:35;;;;;;;28.27;12.10;;;13.80;99.90;;;;;;5113541;28;20213;-60
2022/10/29 07:28:04;;;;;;;27.47;12.43;;;13.90;99.90;;;;;;5089134;28;20195;-59
2022/10/29 07:30:33;;;;;;;28.73;12.87;;;14.00;99.90;;;;;;5104125;28;20203;-60
2022/10/29 07:33:01;;;;;;;26.17;12.40;;;14.10;99.90;;;;;;5112926;28;20192;-59
2022/10/29 07:35:30;;;;;;;26.00;12.80;;;14.30;99.90;;;;;;5112759;28;20188;-59
2022/10/29 07:37:59;;;;;;;26.93;12.23;;;14.40;99.90;;;;;;5116786;28;20192;-59
2022/10/29 07:40:37;;;;;;;23.37;11.60;;;14.50;99.90;;;;;;5117296;28;20191;-60
2022/10/29 07:43:06;;;;;;;28.33;12.27;;;14.50;99.90;;;;;;5117159;28;20186;-59
2022/10/29 07:45:34;;;;;;;30.53;12.63;;;14.70;99.90;;;;;;5098570;28;20215;-59
2022/10/29 07:48:06;;;;;;;25.40;12.23;;;14.70;99.90;;;;;;5111346;28;20194;-58
2022/10/29 07:50:34;;;;;;;31.87;13.40;;;14.80;99.90;;;;;;5111240;28;20192;-59
2022/10/29 07:53:04;;;;;;;30.03;12.10;;;14.90;99.90;;;;;;5083284;28;20199;-60
2022/10/29 07:55:32;;;;;;;25.23;12.10;;;14.90;99.90;;;;;;5098552;28;20191;-59
2022/10/29 07:58:05;;;;;;;30.63;12.30;;;14.90;99.90;;;;;;5102064;27;20750;-59
2022/10/29 08:00:35;;;;;;;22.30;11.43;;;15.00;99.90;;;;;;5105129;28;20210;-59
2022/10/29 08:03:03;;;;;;;25.30;11.90;;;15.00;99.90;;;;;;5117337;28;20684;-60
2022/10/29 08:05:32;;;;;;;34.50;12.60;;;15.10;99.90;;;;;;5116751;28;20212;-60
2022/10/29 08:08:01;;;;;;;25.37;12.13;;;15.20;99.90;;;;;;5116641;28;20184;-59
2022/10/29 08:10:30;;;;;;;27.83;11.70;;;15.30;99.90;;;;;;5116438;28;20187;-60
2022/10/29 08:13:00;;;;;;;25.00;10.93;;;15.40;99.90;;;;;;5115834;28;20234;-59
2022/10/29 08:15:32;;;;;;;23.73;11.63;;;15.40;99.90;;;;;;5093827;28;20197;-59
2022/10/29 08:18:01;;;;;;;26.87;11.67;;;15.70;99.90;;;;;;5116534;28;20197;-59
2022/10/29 08:20:29;;;;;;;21.90;10.60;;;15.90;99.90;;;;;;5116678;28;20189;-59
2022/10/29 08:22:59;;;;;;;26.63;10.63;;;16.00;99.90;;;;;;5116469;28;20202;-59
2022/10/29 08:25:29;;;;;;;25.77;10.90;;;16.10;99.90;;;;;;5081011;28;20584;-60
2022/10/29 08:28:02;;;;;;;24.40;9.33;;;16.20;99.90;;;;;;5116179;28;20197;-59
2022/10/29 08:30:32;;;;;;;21.43;9.97;;;16.30;99.90;;;;;;5126902;27;20208;-59
2022/10/29 08:33:00;;;;;;;21.63;9.03;;;16.40;99.90;;;;;;5116351;28;20203;-60
2022/10/29 08:35:29;;;;;;;19.00;9.00;;;16.40;99.90;;;;;;5116253;28;20189;-60
2022/10/29 08:37:57;;;;;;;25.33;9.40;;;16.60;99.90;;;;;;5116056;28;20191;-59
2022/10/29 08:40:30;;;;;;;21.63;8.13;;;16.70;99.90;;;;;;5116407;28;20194;-59
2022/10/29 08:43:29;;;;;;;24.70;8.33;;;16.80;99.90;;;;;;5115948;28;20193;-59
2022/10/29 08:45:59;;;;;;;17.60;8.13;;;17.10;99.90;;;;;;5115784;28;20214;-59
2022/10/29 08:48:36;;;;;;;16.57;8.23;;;17.20;99.90;;;;;;5115203;28;20201;-59
2022/10/29 08:51:13;;;;;;;15.20;7.90;;;17.30;99.90;;;;;;5113645;27;20197;-59
2022/10/29 08:53:46;;;;;;;14.33;8.03;;;17.40;99.90;;;;;;5115691;28;20202;-59
2022/10/29 08:56:38;;;;;;;18.43;8.13;;;17.30;99.90;;;;;;5097073;28;20542;-60
2022/10/29 08:59:12;;;;;;;17.00;8.30;;;17.40;99.90;;;;;;5114496;28;20198;-60
2022/10/29 09:01:42;;;;;;;21.57;8.47;;;17.40;99.90;;;;;;5101074;28;20195;-59
2022/10/29 09:04:21;;;;;;;13.70;7.83;;;17.40;99.90;;;;;;5120184;27;20207;-60
2022/10/29 09:07:02;;;;;;;17.57;7.83;;;17.40;99.90;;;;;;5111523;28;20211;-59
2022/10/29 09:09:38;;;;;;;13.23;7.43;;;17.40;99.90;;;;;;5097200;28;20688;-59
2022/10/29 09:12:40;;;;;;;18.67;8.17;;;17.40;99.90;;;;;;5085893;28;20223;-59
2022/10/29 09:15:30;;;;;;;27.50;7.97;;;17.50;99.90;;;;;;5090372;28;20222;-60
2022/10/29 09:18:14;;;;;;;13.70;7.43;;;17.50;99.90;;;;;;5087264;28;20180;-60
2022/10/29 09:20:54;;;;;;;18.63;7.60;;;17.70;99.90;;;;;;5092320;28;20538;-59
2022/10/29 09:23:34;;;;;;;15.70;6.63;;;17.80;99.90;;;;;;5093066;28;20202;-60
2022/10/29 09:26:04;;;;;;;14.97;7.00;;;18.00;99.90;;;;;;5080066;28;20195;-59
2022/10/29 09:28:43;;;;;;;11.53;6.60;;;18.00;99.90;;;;;;5094799;28;20278;-59
2022/10/29 09:31:22;;;;;;;14.73;7.17;;;18.20;99.90;;;;;;5093386;28;20198;-59
2022/10/29 09:33:53;;;;;;;14.93;6.47;;;18.40;99.90;;;;;;5081042;28;20188;-60
2022/10/29 09:36:29;;;;;;;20.10;6.97;;;18.60;99.90;;;;;;5073294;28;20188;-59
2022/10/29 09:39:01;;;;;;;19.77;6.60;;;18.70;99.90;;;;;;5074302;28;20192;-59
2022/10/29 09:41:33;;;;;;;15.97;6.47;;;18.70;99.90;;;;;;5074353;28;20215;-59
2022/10/29 09:44:07;;;;;;;14.93;6.27;;;18.70;99.90;;;;;;5074475;28;20195;-59
2022/10/29 09:46:44;;;;;;;16.03;6.17;;;18.70;99.90;;;;;;5082144;28;20229;-59
2022/10/29 09:49:31;;;;;;;16.40;6.23;;;18.70;99.90;;;;;;5094574;28;20195;-60
2022/10/29 09:52:04;;;;;;;18.47;5.80;;;18.70;99.90;;;;;;5094354;28;20192;-59
2022/10/29 09:54:33;;;;;;;20.93;6.37;;;18.90;99.90;;;;;;5094296;28;20198;-59
2022/10/29 09:57:04;;;;;;;21.43;6.40;;;19.00;99.90;;;;;;5094245;28;20186;-59
2022/10/29 09:59:35;;;;;;;12.17;6.10;;;19.20;99.90;;;;;;5092359;28;20208;-59
2022/10/29 10:02:19;;;;;;;19.93;5.70;;;19.50;99.90;;;;;;5092645;28;20199;-60
2022/10/29 10:04:55;;;;;;;12.47;5.70;;;19.60;99.90;;;;;;5092872;28;20294;-59
2022/10/29 10:07:23;;;;;;;15.93;5.93;;;19.90;99.90;;;;;;5093303;28;20302;-60
2022/10/29 10:09:55;;;;;;;17.73;5.73;;;20.00;99.90;;;;;;5094002;28;20190;-60
2022/10/29 10:12:25;;;;;;;13.73;5.67;;;20.20;99.90;;;;;;5104875;28;20260;-60
2022/10/29 10:15:05;;;;;;;17.77;5.57;;;20.30;99.90;;;;;;5095659;28;20187;-59
2022/10/29 10:17:56;;;;;;;15.23;5.57;;;20.50;99.90;;;;;;5113946;28;20507;-60
2022/10/29 10:20:38;;;;;;;18.03;5.37;;;20.80;99.90;;;;;;5114056;28;20203;-60
2022/10/29 10:23:21;;;;;;;18.37;5.53;;;20.90;99.90;;;;;;5095834;28;20206;-60
2022/10/29 10:25:51;;;;;;;18.23;5.67;;;21.00;99.90;;;;;;5114307;28;20191;-60
2022/10/29 10:28:22;;;;;;;18.83;5.23;;;21.10;99.90;;;;;;5110615;28;20211;-60
2022/10/29 10:31:13;;;;;;;20.87;5.83;;;21.20;99.90;;;;;;5113910;28;20202;-60
2022/10/29 10:33:49;;;;;;;14.83;5.23;;;21.40;99.90;;;;;;5108213;28;20195;-60
2022/10/29 10:36:22;;;;;;;16.60;5.13;;;21.50;99.90;;;;;;5106277;28;20267;-59
2022/10/29 10:38:52;;;;;;;12.60;5.17;;;21.70;99.90;;;;;;5101583;28;20188;-59
2022/10/29 10:41:28;;;;;;;14.90;5.30;;;21.70;99.90;;;;;;5105060;28;20289;-60
2022/10/29 10:44:00;;;;;;;15.87;5.93;;;21.80;99.90;;;;;;5108852;28;20202;-59
2022/10/29 10:46:32;;;;;;;11.97;5.00;;;21.80;99.90;;;;;;5097061;28;20271;-59
2022/10/29 10:49:04;;;;;;;15.47;5.03;;;21.90;99.90;;;;;;5103537;28;21176;-60
2022/10/29 10:51:36;;;;;;;16.87;4.97;;;22.00;99.90;;;;;;5111844;28;20204;-60
2022/10/29 10:54:28;;;;;;;16.73;5.17;;;22.00;99.90;;;;;;5109678;28;20274;-60
2022/10/29 10:57:00;;;;;;;10.87;4.53;;;22.10;99.90;;;;;;5093695;28;20280;-59
2022/10/29 10:59:43;;;;;;;12.07;5.03;;;22.30;99.90;;;;;;5110265;28;20203;-60
2022/10/29 11:02:20;;;;;;;16.63;4.60;;;22.40;99.90;;;;;;5104546;28;20200;-59
2022/10/29 11:04:56;;;;;;;14.37;5.13;;;22.50;99.90;;;;;;5087695;28;20223;-58
2022/10/29 11:07:35;;;;;;;22.67;5.03;;;22.70;99.90;;;;;;5113349;28;20673;-59
2022/10/29 11:10:07;;;;;;;9.03;4.30;;;22.80;99.90;;;;;;5121154;27;20210;-59
2022/10/29 11:12:40;;;;;;;14.80;4.90;;;22.90;99.90;;;;;;5124861;27;20227;-59
2022/10/29 11:15:15;;;;;;;10.77;4.50;;;23.10;99.90;;;;;;5115991;28;20196;-59
2022/10/29 11:17:50;;;;;;;11.90;4.23;;;23.30;99.90;;;;;;5122764;27;20202;-59
2022/10/29 11:20:27;;;;;;;13.00;4.17;;;23.40;99.90;;;;;;5115148;27;20242;-59
2022/10/29 11:23:11;;;;;;;13.20;4.17;;;23.60;99.90;;;;;;5098636;28;20675;-59
2022/10/29 11:25:45;;;;;;;12.83;4.10;;;23.70;99.90;;;;;;5096832;28;20191;-59
2022/10/29 11:28:22;;;;;;;11.53;4.30;;;24.00;99.90;;;;;;5096633;28;20214;-59
2022/10/29 11:30:59;;;;;;;12.50;4.60;;;24.20;99.90;;;;;;5111829;28;20190;-58
2022/10/29 11:33:46;;;;;;;14.40;4.20;;;24.30;99.90;;;;;;5103430;28;20290;-58
2022/10/29 11:36:19;;;;;;;7.40;4.00;;;24.40;99.90;;;;;;5078756;28;20190;-59
2022/10/29 11:38:56;;;;;;;18.33;4.50;;;24.40;99.90;;;;;;5111457;28;20216;-58
2022/10/29 11:41:32;;;;;;;16.53;4.13;;;24.30;99.90;;;;;;5115792;28;20533;-58
2022/10/29 11:44:00;;;;;;;16.23;4.40;;;24.20;99.90;;;;;;5105877;28;20555;-59
2022/10/29 11:46:37;;;;;;;14.60;4.50;;;24.20;99.90;;;;;;5089155;28;20254;-58
2022/10/29 11:49:20;;;;;;;9.23;4.00;;;24.30;99.90;;;;;;5103532;28;20218;-58
2022/10/29 11:51:58;;;;;;;13.93;4.27;;;24.40;99.90;;;;;;5095297;28;20727;-59
2022/10/29 11:54:40;;;;;;;14.97;4.20;;;24.50;99.90;;;;;;5114161;28;20205;-59
2022/10/29 11:57:15;;;;;;;13.47;4.33;;;24.70;99.90;;;;;;5078120;28;20195;-59
2022/10/29 11:59:59;;;;;;;9.47;3.77;;;24.90;99.90;;;;;;5114579;27;20592;-59
2022/10/29 12:02:41;;;;;;;14.97;4.07;;;24.90;99.90;;;;;;5107750;28;20190;-59
2022/10/29 12:05:21;;;;;;;15.93;3.67;;;25.00;99.90;;;;;;5112914;28;20218;-58
2022/10/29 12:08:14;;;;;;;8.83;3.90;;;25.00;99.90;;;;;;5103935;28;20731;-59
2022/10/29 12:10:52;;;;;;;8.97;4.00;;;25.00;99.90;;;;;;5111081;28;20226;-59
2022/10/29 12:13:35;;;;;;;12.37;4.27;;;24.70;99.90;;;;;;5111306;28;20568;-58
2022/10/29 12:16:14;;;;;;;19.50;4.00;;;24.50;99.90;;;;;;5103666;28;20203;-58
2022/10/29 12:18:50;;;;;;;10.60;3.70;;;24.20;99.90;;;;;;5112181;27;20186;-59
2022/10/29 12:21:31;;;;;;;15.70;4.30;;;24.10;99.90;;;;;;5098550;28;20658;-58
2022/10/29 12:24:10;;;;;;;18.03;4.60;;;24.00;99.90;;;;;;5110030;28;20223;-59
2022/10/29 12:26:44;;;;;;;14.43;4.00;;;24.00;99.90;;;;;;5095737;28;20197;-58
2022/10/29 12:29:20;;;;;;;13.43;4.37;;;24.10;99.90;;;;;;5115818;28;20686;-58
2022/10/29 12:31:54;;;;;;;16.43;3.90;;;24.10;99.90;;;;;;5115197;28;20197;-58
2022/10/29 12:34:30;;;;;;;9.43;3.60;;;24.20;99.90;;;;;;5109417;28;20277;-59
2022/10/29 12:37:09;;;;;;;13.30;4.37;;;24.30;99.90;;;;;;5111690;28;20576;-59
2022/10/29 12:39:45;;;;;;;13.17;4.00;;;24.40;99.90;;;;;;5104393;27;20213;-58
2022/10/29 12:42:21;;;;;;;12.93;4.13;;;24.50;99.90;;;;;;5092113;28;20210;-58
2022/10/29 12:45:06;;;;;;;15.53;3.87;;;24.70;99.90;;;;;;5101799;28;20552;-58
2022/10/29 12:47:45;;;;;;;15.67;4.27;;;24.90;99.90;;;;;;5109047;28;20205;-59
2022/10/29 12:50:28;;;;;;;14.50;4.50;;;25.00;99.90;;;;;;5078107;28;20205;-59
2022/10/29 12:53:03;;;;;;;14.30;4.20;;;24.90;99.90;;;;;;5115519;28;20199;-59
2022/10/29 12:55:34;;;;;;;12.60;4.67;;;25.00;99.90;;;;;;5096602;28;20260;-59
2022/10/29 12:58:35;;;;;;;19.53;4.73;;;25.00;99.90;;;;;;5115716;28;20199;-59
2022/10/29 13:01:05;;;;;;;16.53;3.53;;;25.20;99.90;;;;;;5095341;28;20624;-59
2022/10/29 13:04:02;;;;;;;15.70;4.43;;;25.20;99.90;;;;;;5085872;28;20187;-59
2022/10/29 13:06:48;;;;;;;14.23;3.90;;;25.10;99.90;;;;;;5094200;28;20211;-60
2022/10/29 13:09:19;;;;;;;10.47;3.63;;;25.20;99.90;;;;;;5094961;28;20206;-59
2022/10/29 13:11:50;;;;;;;11.67;4.47;;;25.10;99.90;;;;;;5095222;28;20225;-59
2022/10/29 13:14:24;;;;;;;9.27;3.53;;;25.10;99.90;;;;;;5105534;28;20691;-59
2022/10/29 13:16:55;;;;;;;7.20;3.80;;;24.90;99.90;;;;;;5115759;28;20200;-59
2022/10/29 13:19:42;;;;;;;9.57;3.83;;;24.90;99.90;;;;;;5115594;28;20194;-59